• Join FlightAware (Why Join?)
  • Login
  • US Flag 
12:29AM EDT


 

Airport Tracker/Info


-or-


 

Live Flight TrackerFlight Track Log ✈ DAL6032 ✈ 31-Mar-2014 ✈ KIAD - KDTW

Flight Track Log - Related Links

Times and Time Zones

All times are in EDT time to prevent confusion due to time zone crossing. See the DAL6032 flight status page for this flight to view local times or setup timezone preferences in your user account.

Time Position Orientation Groundspeed Altitude Reporting Facility
EDT Latitude Longitude Course Direction KTS MPH feet Rate Location/Type
01:00PM 38.9847 -77.4450 293° West 176 203 2,500  Level Washington Center
01:01PM 39.0406 -77.4678 342° North 197 227 4,400 2,100 Climbing Washington Center
01:02PM 39.0769 -77.5356 305° West 203 234 6,800 2,340 Climbing Washington Center
01:03PM 39.2897 -77.5420 344° North  Level FlightAware Approximate
01:03PM 39.1369 -77.5719 335° Northwest 220 253 9,100  Level Washington Center
01:04PM 39.3793 -77.5755 344° North  Level FlightAware Approximate
01:04PM 39.2028 -77.6111 335° Northwest 237 273 10,700  Level Washington Center
01:05PM 39.4567 -77.6101 288° West  Level FlightAware Approximate
01:05PM 39.2750 -77.6533 336° Northwest 259 298 12,000  Level Washington Center
01:06PM 39.4860 -77.7247 293° West  Level FlightAware Approximate
01:06PM 39.3533 -77.7119 330° Northwest 294 338 13,500  Level Washington Center
01:07PM 39.4272 -77.7731 327° Northwest 310 357 15,000 1,560 Climbing Washington Center
01:08PM 39.5033 -77.8347 328° Northwest 322 371 16,700 900 Climbing Washington Center
01:09PM 39.5597 -77.9306 307° West 322 371 16,900 120 Climbing Washington Center
01:10PM 39.5950 -78.0503 291° West 333 383 17,000 780 Climbing Washington Center
01:11PM 39.6336 -78.1831 291° West 350 403 18,600 1,320 Climbing Cleveland Center
01:12PM 39.6681 -78.3014 291° West 350 403 20,000 1,380 Climbing Cleveland Center
01:13PM 39.7036 -78.4208 291° West 350 403 21,500 1,380 Climbing Cleveland Center
01:14PM 39.7392 -78.5419 291° West 355 409 22,900 1,380 Climbing Cleveland Center
01:15PM 39.7736 -78.6619 291° West 355 409 24,400 1,440 Climbing Cleveland Center
01:16PM 39.8108 -78.7858 291° West 354 407 25,900 1,200 Climbing Cleveland Center
01:18PM 39.8508 -78.9267 290° West 349 402 27,000 960 Climbing Cleveland Center
01:19PM 39.8844 -79.0425 291° West 351 404 27,900 480 Climbing Cleveland Center
01:20PM 39.9200 -79.1661 291° West 362 417 28,000  Climbing Cleveland Center
01:21PM 39.9558 -79.2947 290° West 373 429 28,000  Level Cleveland Center
01:22PM 40.0031 -79.4181 297° West 378 435 28,000  Level Cleveland Center
01:23PM 40.0636 -79.5306 305° West 377 434 28,000 480 Level Cleveland Center
01:24PM 40.1328 -79.6664 304° West 375 432 29,000 960 Climbing Cleveland Center
01:25PM 40.1872 -79.7736 304° West 362 417 30,000 480 Climbing Cleveland Center
01:26PM 40.2422 -79.8825 304° West 361 415 30,000  Level Cleveland Center
01:27PM 40.2992 -79.9953 304° West 367 422 30,000  Level Cleveland Center
01:28PM 40.3583 -80.1094 304° West 368 423 30,000  Level Cleveland Center
01:29PM 40.4131 -80.2172 304° West 364 419 30,000  Level Cleveland Center
01:30PM 40.4794 -80.3511 303° West 363 418 30,000  Level Cleveland Center
01:31PM 40.5289 -80.4497 303° West 364 419 30,000  Level Cleveland Center
01:32PM 40.5844 -80.5617 303° West 365 420 30,000  Level Cleveland Center
01:33PM 40.6517 -80.6978 303° West 367 422 30,000  Level Cleveland Center
01:34PM 40.7075 -80.8111 303° West 368 423 30,000 -540 Level Cleveland Center
01:35PM 40.7633 -80.9253 303° West 369 425 29,000 -1,260 Descending Cleveland Center
01:36PM 40.8183 -81.0364 303° West 367 422 27,500 -1,500 Descending Cleveland Center
01:37PM 40.8706 -81.1469 302° West 361 415 26,000 -1,560 Descending Cleveland Center
01:38PM 40.9356 -81.2764 304° West 359 413 24,300 -1,020 Descending Cleveland Center
01:39PM 40.9889 -81.3878 302° West 358 412 24,000 -180 Descending Cleveland Center
01:40PM 41.0422 -81.5008 302° West 357 411 24,000  Level Cleveland Center
01:41PM 41.0983 -81.6164 303° West 363 418 24,000  Level Cleveland Center
01:42PM 41.1531 -81.7292 303° West 368 423 24,000 -480 Level Cleveland Center
01:43PM 41.2078 -81.8461 302° West 370 426 23,100 -1,020 Descending Cleveland Center
01:44PM 41.2636 -81.9611 303° West 371 427 22,000 -1,260 Descending Cleveland Center
01:45PM 41.3281 -82.0986 302° West 370 426 20,500 -1,020 Descending Cleveland Center
01:46PM 41.3803 -82.2003 304° West 361 415 20,000 -300 Descending Cleveland Center
01:47PM 41.4431 -82.3031 309° West 357 411 20,000 -600 Level Cleveland Center
01:49PM 41.5039 -82.4044 309° West 351 404 18,800 -1,320 Descending Cleveland Center
01:49PM 41.5472 -82.4833 306° West 343 395 17,800 -1,560 Descending Cleveland Center
01:50PM 41.5728 -82.5219 312° West 343 395 17,200 -1,680 Descending Cleveland Center
01:50PM 41.6014 -82.5736 307° West 340 391 16,300 -1,800 Descending Cleveland Center
01:51PM 41.6322 -82.6208 311° West 342 394 15,400 -1,800 Descending Cleveland Center
01:51PM 41.6614 -82.6736 307° West 340 391 14,500 -1,560 Descending Cleveland Center
01:52PM 41.6842 -82.7067 313° West 342 394 13,800 -2,280 Descending Cleveland Center
01:52PM 41.7211 -82.7706 308° West 333 383 12,200 -1,800 Descending Cleveland Center
01:53PM 41.7564 -82.8172 315° West 331 381 12,000 -240 Descending Cleveland Center
01:53PM 41.7803 -82.8483 316° Northwest 328 377 12,000  Level Cleveland Center
01:54PM 41.8250 -82.8983 320° Northwest 329 379 12,000  Level Cleveland Center
01:54PM 41.8439 -82.9239 315° West 330 380 12,000  Level Cleveland Center
01:55PM 41.8939 -82.9794 320° Northwest 329 379 12,000  Level Cleveland Center
01:55PM 41.9131 -83.0061 314° West 335 386 12,000  Level Cleveland Center
01:56PM 41.9636 -83.0636 320° Northwest 334 384 12,000  Level Cleveland Center
01:56PM 41.9939 -83.1014 317° Northwest 337 388 12,000  Level Cleveland Center
01:57PM 42.0325 -83.1469 319° Northwest 335 386 12,000 -600 Level Cleveland Center
01:57PM 42.0628 -83.1867 316° Northwest 329 379 11,400 -1,020 Descending Cleveland Center
01:58PM 42.1064 -83.2364 320° Northwest 302 348 11,000 -600 Descending Cleveland Center
01:58PM 42.1144 -83.2500 309° West 259 298 10,900 -120 Descending Cleveland Center
01:59PM 42.1661 -83.2608 351° North 259 298 10,900 -420 Level Cleveland Center
01:59PM 42.1772 -83.2531 27° Northeast 263 303 10,500 -1,500 Descending Cleveland Center
02:00PM 42.2297 -83.2131 29° Northeast 261 300 9,400 -1,380 Descending Cleveland Center
02:00PM 42.2439 -83.2033 27° Northeast 256 295 9,100 -1,080 Descending Cleveland Center
02:01PM 42.2883 -83.1692 30° Northeast 252 290 8,300 -1,320 Descending Cleveland Center
02:01PM 42.3083 -83.1558 26° Northeast 239 275 7,700 -1,500 Descending Cleveland Center
02:02PM 42.3464 -83.1325 24° Northeast 242 278 6,800 -1,500 Descending Cleveland Center
02:02PM 42.3617 -83.1433 332° Northwest 226 260 6,300 -1,740 Descending Cleveland Center
02:03PM 42.3769 -83.1958 292° West 222 255 5,000 -1,980 Descending Cleveland Center
02:03PM 42.3611 -83.2308 239° Southwest 219 252 4,100 -2,280 Descending Cleveland Center
02:04PM 42.3225 -83.2581 208° Southwest 221 254 2,700 -1,680 Descending Cleveland Center
02:04PM 42.3144 -83.2667 218° Southwest 211 243 2,600 -780 Descending Cleveland Center
02:05PM 42.2758 -83.2919 206° Southwest 205 236 1,900 -840 Descending Cleveland Center
02:05PM 42.2681 -83.2969 205° Southwest 179 206 1,800 -780 Descending Cleveland Center
02:06PM 42.2381 -83.3203 210° Southwest 172 198 1,100 -900 Descending Cleveland Center
02:06PM 42.2322 -83.3258 215° Southwest 136 157 900 -2,400 Descending Cleveland Center